Time;durP1;ratioP1;P1;durP2;ratioP2;P2;SDS_P1;SDS_P2;PMS_P1;PMS_P2;Temp;Humidity;BMP_temperature;BMP_pressure;BME280_temperature;BME280_humidity;BME280_pressure;Samples;Min_cycle;Max_cycle;Signal;HPM_P1;HPM_P2
2024/01/17 00:01:06;;;;;;;18.63;8.57;;;;;;;;;;5883899;28;20060;-78
2024/01/17 00:03:57;;;;;;;15.98;6.93;;;;;;;;;;5884460;28;20048;-78
2024/01/17 00:06:47;;;;;;;16.30;8.85;;;;;;;;;;5883606;28;20041;-78
2024/01/17 00:09:38;;;;;;;26.65;8.90;;;;;;;;;;5883646;28;20499;-78
2024/01/17 00:12:30;;;;;;;13.85;8.55;;;;;;;;;;5867206;28;20045;-78
2024/01/17 00:15:21;;;;;;;21.15;7.97;;;;;;;;;;5883693;28;20048;-78
2024/01/17 00:18:12;;;;;;;18.08;7.40;;;;;;;;;;5883610;28;20139;-78
2024/01/17 00:21:03;;;;;;;14.27;7.05;;;;;;;;;;5883661;28;20049;-78
2024/01/17 00:23:54;;;;;;;14.10;7.57;;;;;;;;;;5885034;28;20056;-78
2024/01/17 00:26:46;;;;;;;15.65;7.53;;;;;;;;;;5884684;28;20040;-78
2024/01/17 00:29:37;;;;;;;22.73;7.72;;;;;;;;;;5885697;28;20049;-78
2024/01/17 00:32:28;;;;;;;16.45;6.55;;;;;;;;;;5885548;28;20414;-78
2024/01/17 00:35:18;;;;;;;24.58;7.72;;;;;;;;;;5885687;28;20118;-78
2024/01/17 00:38:09;;;;;;;18.58;7.45;;;;;;;;;;5867838;28;20052;-78
2024/01/17 00:41:00;;;;;;;16.63;8.13;;;;;;;;;;5884757;28;20175;-78
2024/01/17 00:43:51;;;;;;;20.73;9.43;;;;;;;;;;5885603;28;20420;-78
2024/01/17 00:46:42;;;;;;;12.80;6.57;;;;;;;;;;5884323;28;20041;-78
2024/01/17 00:49:33;;;;;;;15.10;6.78;;;;;;;;;;5887061;28;20045;-78
2024/01/17 00:52:24;;;;;;;35.40;9.75;;;;;;;;;;5888376;28;20045;-78
2024/01/17 00:55:15;;;;;;;15.10;7.13;;;;;;;;;;5889983;28;20067;-78
2024/01/17 00:58:06;;;;;;;9.63;6.00;;;;;;;;;;5888865;28;20119;-78
2024/01/17 01:00:57;;;;;;;11.35;6.20;;;;;;;;;;5890116;28;20136;-78
2024/01/17 01:03:48;;;;;;;19.17;7.68;;;;;;;;;;5877139;28;20041;-78
2024/01/17 01:06:38;;;;;;;24.35;9.63;;;;;;;;;;5888263;28;20071;-78
2024/01/17 01:09:29;;;;;;;13.23;8.05;;;;;;;;;;5871439;28;20045;-78
2024/01/17 01:12:20;;;;;;;18.50;7.57;;;;;;;;;;5887887;28;20049;-78
2024/01/17 01:15:11;;;;;;;35.85;8.38;;;;;;;;;;5887694;28;20049;-78
2024/01/17 01:18:02;;;;;;;36.45;9.95;;;;;;;;;;5871378;28;20499;-78
2024/01/17 01:20:53;;;;;;;32.88;9.20;;;;;;;;;;5888110;28;20041;-78
2024/01/17 01:23:45;;;;;;;21.13;9.50;;;;;;;;;;5887304;28;20052;-78
2024/01/17 01:26:36;;;;;;;18.15;8.82;;;;;;;;;;5887490;28;20411;-78
2024/01/17 01:29:27;;;;;;;19.00;9.98;;;;;;;;;;5887298;28;20060;-78
2024/01/17 01:32:17;;;;;;;18.23;8.93;;;;;;;;;;5888600;28;20048;-78
2024/01/17 01:35:08;;;;;;;27.80;12.60;;;;;;;;;;5887036;28;20206;-78
2024/01/17 01:37:59;;;;;;;31.65;13.52;;;;;;;;;;5887652;28;20044;-78
2024/01/17 01:40:50;;;;;;;21.52;8.98;;;;;;;;;;5887434;28;20510;-78
2024/01/17 01:43:41;;;;;;;28.27;10.63;;;;;;;;;;5886826;28;20051;-78
2024/01/17 01:46:33;;;;;;;27.10;11.38;;;;;;;;;;5887277;28;20045;-78
2024/01/17 01:49:24;;;;;;;36.35;16.10;;;;;;;;;;5887107;28;20045;-78
2024/01/17 01:52:17;;;;;;;29.63;13.75;;;;;;;;;;5887115;28;20554;-78
2024/01/17 01:55:10;;;;;;;33.90;13.93;;;;;;;;;;5886541;28;20147;-78
2024/01/17 01:58:00;;;;;;;33.53;14.10;;;;;;;;;;5886493;28;20052;-78
2024/01/17 02:00:53;;;;;;;24.55;10.15;;;;;;;;;;5903352;28;20037;-78
2024/01/17 02:03:46;;;;;;;18.25;9.35;;;;;;;;;;5886720;28;20041;-78
2024/01/17 02:06:39;;;;;;;19.85;12.10;;;;;;;;;;5886482;28;20410;-78
2024/01/17 02:09:33;;;;;;;21.17;10.55;;;;;;;;;;5886674;28;20041;-78
2024/01/17 02:12:24;;;;;;;19.27;10.10;;;;;;;;;;5887731;28;20051;-78
2024/01/17 02:15:15;;;;;;;31.08;12.15;;;;;;;;;;5886436;28;20049;-78
2024/01/17 02:18:06;;;;;;;22.80;10.02;;;;;;;;;;5886213;28;20530;-78
2024/01/17 02:20:57;;;;;;;20.67;8.05;;;;;;;;;;5887030;28;20128;-78
2024/01/17 02:23:52;;;;;;;34.15;14.50;;;;;;;;;;5886100;28;20045;-78
2024/01/17 02:26:43;;;;;;;22.38;10.93;;;;;;;;;;5902679;28;20037;-78
2024/01/17 02:29:34;;;;;;;24.23;12.35;;;;;;;;;;5885992;28;20048;-78
2024/01/17 02:32:25;;;;;;;41.20;11.18;;;;;;;;;;5886090;28;20066;-78
2024/01/17 02:35:18;;;;;;;27.95;10.82;;;;;;;;;;5886465;28;20052;-78
2024/01/17 02:38:09;;;;;;;31.38;11.27;;;;;;;;;;5885869;28;20127;-78
2024/01/17 02:40:59;;;;;;;24.42;9.52;;;;;;;;;;5886716;28;20407;-78
2024/01/17 02:43:50;;;;;;;22.27;10.63;;;;;;;;;;5902835;28;20064;-78
2024/01/17 02:46:41;;;;;;;33.55;12.50;;;;;;;;;;5886352;28;20063;-78
2024/01/17 02:49:32;;;;;;;19.70;12.55;;;;;;;;;;5882389;28;20537;-78
2024/01/17 02:52:23;;;;;;;29.33;10.45;;;;;;;;;;5886075;28;20055;-78
2024/01/17 02:55:17;;;;;;;20.23;11.52;;;;;;;;;;5885846;28;20057;-78
2024/01/17 02:58:08;;;;;;;18.77;10.10;;;;;;;;;;5885788;28;20041;-78
2024/01/17 03:00:59;;;;;;;22.02;10.32;;;;;;;;;;5869796;28;20052;-78
2024/01/17 03:03:49;;;;;;;27.17;11.43;;;;;;;;;;5885730;28;20410;-78
2024/01/17 03:06:41;;;;;;;31.70;11.45;;;;;;;;;;5886117;28;20109;-78
2024/01/17 03:09:32;;;;;;;14.90;9.32;;;;;;;;;;5885068;28;20036;-78
2024/01/17 03:12:24;;;;;;;26.83;11.75;;;;;;;;;;5884445;28;20048;-78
2024/01/17 03:15:15;;;;;;;19.65;9.50;;;;;;;;;;5901355;28;20049;-78
2024/01/17 03:18:08;;;;;;;24.30;9.93;;;;;;;;;;5884972;28;20510;-78
2024/01/17 03:21:04;;;;;;;28.77;11.90;;;;;;;;;;5885941;28;20057;-78
2024/01/17 03:23:55;;;;;;;18.60;8.57;;;;;;;;;;5885166;28;20522;-77
2024/01/17 03:26:46;;;;;;;21.83;8.50;;;;;;;;;;5884849;28;20122;-78
2024/01/17 03:29:37;;;;;;;25.88;10.98;;;;;;;;;;5884563;28;20049;-78
2024/01/17 03:32:28;;;;;;;33.72;9.52;;;;;;;;;;5885273;28;20048;-78
2024/01/17 03:35:18;;;;;;;22.70;10.80;;;;;;;;;;5885161;28;20053;-78
2024/01/17 03:38:09;;;;;;;26.63;7.63;;;;;;;;;;5886181;28;20475;-78
2024/01/17 03:41:01;;;;;;;33.28;9.90;;;;;;;;;;5885536;28;20784;-78
2024/01/17 03:43:51;;;;;;;25.83;8.30;;;;;;;;;;5868344;28;20410;-78
2024/01/17 03:46:42;;;;;;;14.13;9.20;;;;;;;;;;5886065;28;20090;-78
2024/01/17 03:49:33;;;;;;;20.13;8.70;;;;;;;;;;5884752;28;20410;-78
2024/01/17 03:52:24;;;;;;;19.10;8.98;;;;;;;;;;5884928;28;20052;-77
2024/01/17 03:55:14;;;;;;;18.90;8.85;;;;;;;;;;5884665;28;20423;-78
2024/01/17 03:58:05;;;;;;;14.77;8.23;;;;;;;;;;5884527;28;20045;-78
2024/01/17 04:00:56;;;;;;;24.10;9.15;;;;;;;;;;5885579;28;20056;-78
2024/01/17 04:03:47;;;;;;;17.58;10.70;;;;;;;;;;5901271;28;20562;-77
2024/01/17 04:06:38;;;;;;;16.48;10.30;;;;;;;;;;5884700;28;20056;-78
2024/01/17 04:09:29;;;;;;;21.67;10.23;;;;;;;;;;5884663;28;20052;-77
2024/01/17 04:12:20;;;;;;;37.83;10.10;;;;;;;;;;5884427;28;20061;-77
2024/01/17 04:15:11;;;;;;;28.25;12.75;;;;;;;;;;5867805;28;20056;-78
2024/01/17 04:18:02;;;;;;;41.42;20.30;;;;;;;;;;5885369;28;20464;-78
2024/01/17 04:20:53;;;;;;;28.25;13.68;;;;;;;;;;5884327;28;20090;-78
2024/01/17 04:23:47;;;;;;;24.65;9.23;;;;;;;;;;5887255;28;20111;-78
2024/01/17 04:26:37;;;;;;;20.58;12.32;;;;;;;;;;5889007;28;20103;-78
2024/01/17 04:29:28;;;;;;;47.05;22.40;;;;;;;;;;5888462;28;20049;-78
2024/01/17 04:32:19;;;;;;;30.80;17.38;;;;;;;;;;5888880;28;20490;-78
2024/01/17 04:35:11;;;;;;;41.92;15.52;;;;;;;;;;5889194;28;20051;-78
2024/01/17 04:38:03;;;;;;;66.15;27.75;;;;;;;;;;5888952;28;20048;-78
2024/01/17 04:40:54;;;;;;;40.55;19.60;;;;;;;;;;5889148;28;20059;-78
2024/01/17 04:43:45;;;;;;;73.00;26.13;;;;;;;;;;5888516;28;20344;-78
2024/01/17 04:46:37;;;;;;;44.67;24.17;;;;;;;;;;5888267;28;20044;-77
2024/01/17 04:49:28;;;;;;;97.40;32.33;;;;;;;;;;5888178;28;20143;-78
2024/01/17 04:52:19;;;;;;;112.03;28.55;;;;;;;;;;5888575;28;20053;-78
2024/01/17 04:55:10;;;;;;;66.07;23.75;;;;;;;;;;5888205;28;20041;-77
2024/01/17 04:58:00;;;;;;;70.97;21.73;;;;;;;;;;5888286;28;20144;-77
2024/01/17 05:00:52;;;;;;;61.13;21.73;;;;;;;;;;5888859;28;20052;-77
2024/01/17 05:03:43;;;;;;;75.00;20.92;;;;;;;;;;5888118;28;20079;-77
2024/01/17 05:06:34;;;;;;;52.45;17.10;;;;;;;;;;5888388;28;20056;-78
2024/01/17 05:09:26;;;;;;;59.17;19.83;;;;;;;;;;5887862;28;20048;-78
2024/01/17 05:12:17;;;;;;;40.35;14.20;;;;;;;;;;5888624;28;20041;-77
2024/01/17 05:15:08;;;;;;;29.83;11.63;;;;;;;;;;5887581;28;20048;-77
2024/01/17 05:17:58;;;;;;;22.88;9.50;;;;;;;;;;5888242;28;20415;-77
2024/01/17 05:20:49;;;;;;;13.70;5.00;;;;;;;;;;5887267;28;20051;-78
2024/01/17 05:23:40;;;;;;;11.82;6.47;;;;;;;;;;5887383;28;20049;-78
2024/01/17 05:26:31;;;;;;;15.75;6.53;;;;;;;;;;5887391;28;20049;-78
2024/01/17 05:29:22;;;;;;;14.82;6.72;;;;;;;;;;5903628;28;20659;-78
2024/01/17 05:32:12;;;;;;;19.60;8.80;;;;;;;;;;5887112;28;20054;-78
2024/01/17 05:35:06;;;;;;;26.38;8.32;;;;;;;;;;5886544;28;20045;-78
2024/01/17 05:37:56;;;;;;;50.78;12.43;;;;;;;;;;5889051;28;20052;-78
2024/01/17 05:40:47;;;;;;;41.13;14.25;;;;;;;;;;5887961;28;20068;-78
2024/01/17 05:43:39;;;;;;;40.05;15.07;;;;;;;;;;5887373;28;20102;-78
2024/01/17 05:46:30;;;;;;;42.20;13.15;;;;;;;;;;5887290;28;20136;-78
2024/01/17 05:49:20;;;;;;;21.70;9.02;;;;;;;;;;5887014;28;20049;-78
2024/01/17 05:52:11;;;;;;;15.95;6.90;;;;;;;;;;5886797;28;20207;-78
2024/01/17 05:55:03;;;;;;;18.90;7.60;;;;;;;;;;5887249;28;20119;-78
2024/01/17 05:57:54;;;;;;;12.80;5.85;;;;;;;;;;5887452;28;20044;-78
2024/01/17 06:00:45;;;;;;;9.77;5.30;;;;;;;;;;5887129;28;20045;-78
2024/01/17 06:03:36;;;;;;;18.48;6.78;;;;;;;;;;5887145;28;20049;-78
2024/01/17 06:06:27;;;;;;;18.75;5.97;;;;;;;;;;5887848;28;20052;-78
2024/01/17 06:09:19;;;;;;;11.60;5.35;;;;;;;;;;5886825;28;20523;-77
2024/01/17 06:12:10;;;;;;;16.73;6.90;;;;;;;;;;5888206;28;20045;-78
2024/01/17 06:15:01;;;;;;;9.98;5.38;;;;;;;;;;5886753;28;20049;-78
2024/01/17 06:17:52;;;;;;;18.88;7.78;;;;;;;;;;5887354;28;20051;-78
2024/01/17 06:20:43;;;;;;;18.58;6.03;;;;;;;;;;5886793;28;20491;-78
2024/01/17 06:23:34;;;;;;;14.18;7.13;;;;;;;;;;5888263;28;20047;-78
2024/01/17 06:26:25;;;;;;;27.35;6.90;;;;;;;;;;5887923;28;20045;-78
2024/01/17 06:29:16;;;;;;;14.50;7.45;;;;;;;;;;5886405;28;20052;-78
2024/01/17 06:32:07;;;;;;;19.27;6.28;;;;;;;;;;5886657;28;20387;-78
2024/01/17 06:34:58;;;;;;;15.00;6.68;;;;;;;;;;5886798;28;20045;-78
2024/01/17 06:37:49;;;;;;;12.23;4.82;;;;;;;;;;5886143;28;20418;-78
2024/01/17 06:40:39;;;;;;;12.05;5.45;;;;;;;;;;5887421;28;20518;-78
2024/01/17 06:43:31;;;;;;;18.17;6.00;;;;;;;;;;5886580;28;20049;-77
2024/01/17 06:46:22;;;;;;;21.13;7.00;;;;;;;;;;5885303;28;20045;-78
2024/01/17 06:49:13;;;;;;;10.05;5.05;;;;;;;;;;5886138;28;20423;-78
2024/01/17 06:52:04;;;;;;;8.63;5.40;;;;;;;;;;5886142;28;20051;-78
2024/01/17 06:54:55;;;;;;;13.75;6.10;;;;;;;;;;5886586;28;20423;-78
2024/01/17 06:57:46;;;;;;;13.30;4.40;;;;;;;;;;5885773;28;20041;-78
2024/01/17 07:00:37;;;;;;;13.40;5.32;;;;;;;;;;5886326;28;20052;-78
2024/01/17 07:03:27;;;;;;;18.08;6.55;;;;;;;;;;5902219;28;20045;-78
2024/01/17 07:06:18;;;;;;;7.60;3.92;;;;;;;;;;5885922;28;20057;-78
2024/01/17 07:09:10;;;;;;;13.65;5.00;;;;;;;;;;5886826;28;20048;-78
2024/01/17 07:12:02;;;;;;;9.15;5.07;;;;;;;;;;5886703;28;20052;-78
2024/01/17 07:14:54;;;;;;;10.40;4.63;;;;;;;;;;5869243;28;20475;-78
2024/01/17 07:17:45;;;;;;;16.20;5.18;;;;;;;;;;5884503;28;20045;-78
2024/01/17 07:20:36;;;;;;;16.80;5.68;;;;;;;;;;5885023;28;20064;-78
2024/01/17 07:23:27;;;;;;;6.63;4.32;;;;;;;;;;5884865;28;20406;-78
2024/01/17 07:26:18;;;;;;;8.52;4.72;;;;;;;;;;5885068;28;20540;-78
2024/01/17 07:29:09;;;;;;;13.10;5.60;;;;;;;;;;5885891;28;20049;-78
2024/01/17 07:32:00;;;;;;;11.68;4.75;;;;;;;;;;5886634;28;20517;-78
2024/01/17 07:34:51;;;;;;;13.80;5.55;;;;;;;;;;5885034;28;20136;-78
2024/01/17 07:37:42;;;;;;;6.00;4.35;;;;;;;;;;5884784;28;20098;-78
2024/01/17 07:40:33;;;;;;;13.75;5.15;;;;;;;;;;5884676;28;20411;-78
2024/01/17 07:43:24;;;;;;;8.82;4.57;;;;;;;;;;5900991;28;20044;-78
2024/01/17 07:46:15;;;;;;;9.30;4.47;;;;;;;;;;5884215;28;20049;-78
2024/01/17 07:49:07;;;;;;;21.67;8.63;;;;;;;;;;5884156;28;20079;-78
2024/01/17 07:51:58;;;;;;;15.85;6.63;;;;;;;;;;5886344;28;20044;-78
2024/01/17 07:54:49;;;;;;;14.38;6.75;;;;;;;;;;5884764;28;20052;-78
2024/01/17 07:57:40;;;;;;;11.38;5.60;;;;;;;;;;5883610;28;20047;-79
2024/01/17 08:00:31;;;;;;;13.73;6.30;;;;;;;;;;5885708;28;20056;-79
2024/01/17 08:03:21;;;;;;;20.63;6.32;;;;;;;;;;5884369;28;20399;-79
2024/01/17 08:06:12;;;;;;;11.07;5.47;;;;;;;;;;5883909;28;20404;-79
2024/01/17 08:09:12;;;;;;;10.70;5.18;;;;;;;;;;5884049;28;20049;-79
2024/01/17 08:12:03;;;;;;;14.57;5.78;;;;;;;;;;5884080;28;20071;-79
2024/01/17 08:14:54;;;;;;;8.95;4.78;;;;;;;;;;5884137;28;20044;-79
2024/01/17 08:17:47;;;;;;;18.05;6.78;;;;;;;;;;5883775;28;20092;-79
2024/01/17 08:20:38;;;;;;;19.90;9.23;;;;;;;;;;5883967;28;20446;-79
2024/01/17 08:23:29;;;;;;;18.75;9.75;;;;;;;;;;5884816;28;20043;-79
2024/01/17 08:26:21;;;;;;;29.55;8.35;;;;;;;;;;5883577;28;20952;-79
2024/01/17 08:29:16;;;;;;;21.48;8.63;;;;;;;;;;5883572;28;20519;-79
2024/01/17 08:32:08;;;;;;;31.10;15.07;;;;;;;;;;5883445;28;20760;-79
2024/01/17 08:34:58;;;;;;;34.42;13.45;;;;;;;;;;5885520;28;20049;-79
2024/01/17 08:37:49;;;;;;;18.80;11.10;;;;;;;;;;5883315;28;20040;-79
2024/01/17 08:40:40;;;;;;;23.90;10.82;;;;;;;;;;5882935;28;20051;-79
2024/01/17 08:43:31;;;;;;;18.35;10.77;;;;;;;;;;5884912;28;20569;-79
2024/01/17 08:46:21;;;;;;;37.65;15.32;;;;;;;;;;5882922;28;20045;-79
2024/01/17 08:49:14;;;;;;;56.63;19.05;;;;;;;;;;5884455;28;20071;-79
2024/01/17 08:52:06;;;;;;;132.93;39.42;;;;;;;;;;5883112;28;20045;-80
2024/01/17 08:55:00;;;;;;;91.55;31.88;;;;;;;;;;5883172;28;20442;-80
2024/01/17 08:57:51;;;;;;;24.35;8.93;;;;;;;;;;5883117;28;20193;-80
2024/01/17 09:00:42;;;;;;;19.65;8.43;;;;;;;;;;5883159;28;20045;-80
2024/01/17 09:03:34;;;;;;;21.50;10.70;;;;;;;;;;5884519;28;20056;-80
2024/01/17 09:06:25;;;;;;;34.60;10.48;;;;;;;;;;5884591;28;20487;-80
2024/01/17 09:09:16;;;;;;;48.42;12.82;;;;;;;;;;5884192;28;20052;-81
2024/01/17 09:12:07;;;;;;;131.88;48.33;;;;;;;;;;5888275;28;20194;-81
2024/01/17 09:14:59;;;;;;;143.77;52.40;;;;;;;;;;5890260;28;20040;-81
2024/01/17 09:17:50;;;;;;;36.83;16.48;;;;;;;;;;5888250;28;20407;-81
2024/01/17 09:20:40;;;;;;;20.48;11.90;;;;;;;;;;5889470;28;20053;-81
2024/01/17 09:23:31;;;;;;;18.70;7.68;;;;;;;;;;5888999;28;20049;-81
2024/01/17 09:26:22;;;;;;;122.95;41.00;;;;;;;;;;5886972;28;20483;-82
2024/01/17 09:29:13;;;;;;;227.38;52.40;;;;;;;;;;5886614;28;20525;-82
2024/01/17 09:32:04;;;;;;;123.18;35.55;;;;;;;;;;5887249;28;20049;-82
2024/01/17 09:34:55;;;;;;;159.05;44.63;;;;;;;;;;5887066;28;20040;-82
2024/01/17 09:37:46;;;;;;;51.65;18.27;;;;;;;;;;5903396;28;20076;-82
2024/01/17 09:40:37;;;;;;;96.57;30.88;;;;;;;;;;5888200;28;20052;-82
2024/01/17 09:43:28;;;;;;;46.88;17.00;;;;;;;;;;5888169;28;20044;-82
2024/01/17 09:46:19;;;;;;;22.63;9.52;;;;;;;;;;5870843;28;20049;-82
2024/01/17 09:49:10;;;;;;;12.32;7.57;;;;;;;;;;5886299;28;20064;-82
2024/01/17 09:52:05;;;;;;;8.30;4.95;;;;;;;;;;5886864;28;20053;-82
2024/01/17 09:54:59;;;;;;;4.90;3.42;;;;;;;;;;5903300;28;20056;-82
2024/01/17 09:57:57;;;;;;;10.60;5.25;;;;;;;;;;5888154;28;20090;-83
2024/01/17 10:00:49;;;;;;;23.15;9.27;;;;;;;;;;5887246;28;20041;-83
2024/01/17 10:03:44;;;;;;;54.95;22.23;;;;;;;;;;5903565;28;20040;-83
2024/01/17 10:06:37;;;;;;;97.13;29.33;;;;;;;;;;5887009;28;20045;-83
2024/01/17 10:09:29;;;;;;;69.45;17.02;;;;;;;;;;5888300;28;20120;-83
2024/01/17 10:12:19;;;;;;;49.92;19.25;;;;;;;;;;5886712;28;20526;-83
2024/01/17 10:15:14;;;;;;;26.98;9.63;;;;;;;;;;5886318;28;20072;-83
2024/01/17 10:18:05;;;;;;;20.33;7.63;;;;;;;;;;5888153;28;20072;-83
2024/01/17 10:20:56;;;;;;;14.23;7.90;;;;;;;;;;5887567;28;20043;-83
2024/01/17 10:23:47;;;;;;;15.45;9.52;;;;;;;;;;5902726;28;20132;-83
2024/01/17 10:26:44;;;;;;;5.13;3.13;;;;;;;;;;5885951;28;20179;-83
2024/01/17 10:29:40;;;;;;;5.43;2.88;;;;;;;;;;5885685;28;20048;-82
2024/01/17 10:32:32;;;;;;;6.03;3.35;;;;;;;;;;5885433;28;20071;-82
2024/01/17 10:35:23;;;;;;;3.78;2.03;;;;;;;;;;5869607;28;20498;-82
2024/01/17 10:38:14;;;;;;;16.33;5.68;;;;;;;;;;5886236;28;20056;-82
2024/01/17 10:41:06;;;;;;;16.52;7.40;;;;;;;;;;5885531;28;20049;-82
2024/01/17 10:44:02;;;;;;;64.45;21.10;;;;;;;;;;5902052;28;20127;-82
2024/01/17 10:46:54;;;;;;;68.35;18.92;;;;;;;;;;5885467;28;20045;-82
2024/01/17 10:49:45;;;;;;;21.98;7.13;;;;;;;;;;5884945;28;20044;-81
2024/01/17 10:52:41;;;;;;;9.10;5.65;;;;;;;;;;5885017;28;20494;-82
2024/01/17 10:55:37;;;;;;;23.05;9.20;;;;;;;;;;5885135;28;20044;-82
2024/01/17 10:58:29;;;;;;;13.20;6.93;;;;;;;;;;5885494;28;20049;-82
2024/01/17 11:01:44;;;;;;;10.65;6.63;;;;;;;;;;5884985;28;20052;-81
2024/01/17 11:04:38;;;;;;;16.60;7.15;;;;;;;;;;5885129;28;20124;-81
2024/01/17 11:07:32;;;;;;;8.43;4.18;;;;;;;;;;5900944;28;20045;-81
2024/01/17 11:10:24;;;;;;;14.73;6.47;;;;;;;;;;5884664;28;20133;-81
2024/01/17 11:13:16;;;;;;;11.30;5.05;;;;;;;;;;5884489;28;20064;-81
2024/01/17 11:16:09;;;;;;;10.95;5.95;;;;;;;;;;5884488;28;20052;-82
2024/01/17 11:19:00;;;;;;;18.80;6.20;;;;;;;;;;5884752;28;20099;-82
2024/01/17 11:21:52;;;;;;;10.27;4.35;;;;;;;;;;5884562;28;20041;-82
2024/01/17 11:25:03;;;;;;;12.13;5.05;;;;;;;;;;5885736;28;20041;-82
2024/01/17 11:28:26;;;;;;;10.98;4.63;;;;;;;;;;5869274;28;20041;-82
2024/01/17 11:31:51;;;;;;;18.92;5.45;;;;;;;;;;5884181;28;20045;-82
2024/01/17 11:34:48;;;;;;;11.00;5.00;;;;;;;;;;5884436;28;20396;-82
2024/01/17 11:37:40;;;;;;;8.23;4.88;;;;;;;;;;5884405;28;20422;-82
2024/01/17 11:40:31;;;;;;;8.43;4.25;;;;;;;;;;5885635;28;20049;-82
2024/01/17 11:43:21;;;;;;;7.38;2.97;;;;;;;;;;5886161;28;20052;-82
2024/01/17 11:46:13;;;;;;;10.30;3.38;;;;;;;;;;5884265;28;20056;-82
2024/01/17 11:49:08;;;;;;;6.80;3.55;;;;;;;;;;5884671;28;20406;-82
2024/01/17 11:51:59;;;;;;;4.35;2.00;;;;;;;;;;5885254;28;20546;-82
2024/01/17 11:54:50;;;;;;;6.05;3.28;;;;;;;;;;5884511;28;20048;-82
2024/01/17 11:57:40;;;;;;;3.63;1.52;;;;;;;;;;5885792;28;20052;-82
2024/01/17 12:00:31;;;;;;;4.07;2.25;;;;;;;;;;5885328;28;20124;-81
2024/01/17 12:03:31;;;;;;;4.55;2.10;;;;;;;;;;5887111;28;20044;-82
2024/01/17 12:06:23;;;;;;;2.03;1.83;;;;;;;;;;5885249;28;20040;-82
2024/01/17 12:09:20;;;;;;;8.70;3.00;;;;;;;;;;5885200;28;20419;-81
2024/01/17 12:12:21;;;;;;;3.17;2.45;;;;;;;;;;5871004;28;20055;-82
2024/01/17 12:15:13;;;;;;;4.47;3.60;;;;;;;;;;5885466;28;20127;-82
2024/01/17 12:18:05;;;;;;;7.10;3.70;;;;;;;;;;5885104;28;20052;-81
2024/01/17 12:21:01;;;;;;;2.72;2.13;;;;;;;;;;5868887;28;20642;-81
2024/01/17 12:23:52;;;;;;;4.97;2.50;;;;;;;;;;5884709;28;20126;-81
2024/01/17 12:26:43;;;;;;;2.70;2.33;;;;;;;;;;5884501;28;20037;-81
2024/01/17 12:29:36;;;;;;;2.60;2.40;;;;;;;;;;5883896;28;20044;-82
2024/01/17 12:32:27;;;;;;;4.03;2.55;;;;;;;;;;5884142;28;20051;-81
2024/01/17 12:35:18;;;;;;;6.40;2.58;;;;;;;;;;5884898;28;20785;-82
2024/01/17 12:38:09;;;;;;;12.02;3.67;;;;;;;;;;5883733;28;20048;-82
2024/01/17 12:41:03;;;;;;;2.47;2.28;;;;;;;;;;5885075;28;20056;-82
2024/01/17 12:43:54;;;;;;;3.50;2.40;;;;;;;;;;5867490;28;20502;-82
2024/01/17 12:46:46;;;;;;;119.82;41.65;;;;;;;;;;5889591;28;20036;-81
2024/01/17 12:49:37;;;;;;;72.90;26.00;;;;;;;;;;5887835;28;20045;-82
2024/01/17 12:52:28;;;;;;;30.63;14.63;;;;;;;;;;5889350;28;20079;-82
2024/01/17 12:55:22;;;;;;;33.03;12.63;;;;;;;;;;5887751;28;20419;-82
2024/01/17 12:58:15;;;;;;;108.30;30.05;;;;;;;;;;5872064;28;20044;-82
2024/01/17 13:01:05;;;;;;;65.50;16.20;;;;;;;;;;5887938;28;20450;-81
2024/01/17 13:04:03;;;;;;;183.60;73.22;;;;;;;;;;5888199;28;20044;-82
2024/01/17 13:06:57;;;;;;;99.90;48.42;;;;;;;;;;5888242;28;20525;-81
2024/01/17 13:09:49;;;;;;;26.00;11.50;;;;;;;;;;5888632;28;20049;-82
2024/01/17 13:12:39;;;;;;;15.68;7.25;;;;;;;;;;5888721;28;20056;-82
2024/01/17 13:15:30;;;;;;;84.53;30.25;;;;;;;;;;5887462;28;20063;-81
2024/01/17 13:18:22;;;;;;;92.20;24.65;;;;;;;;;;5870780;28;20052;-82
2024/01/17 13:21:13;;;;;;;141.23;42.72;;;;;;;;;;5887245;28;20052;-82
2024/01/17 13:24:04;;;;;;;58.85;19.67;;;;;;;;;;5887591;28;20538;-81
2024/01/17 13:26:55;;;;;;;28.10;12.85;;;;;;;;;;5889107;28;20068;-82
2024/01/17 13:29:47;;;;;;;14.95;6.45;;;;;;;;;;5888770;28;20427;-82
2024/01/17 13:32:37;;;;;;;28.40;13.38;;;;;;;;;;5887908;28;20616;-82
2024/01/17 13:35:28;;;;;;;47.20;15.68;;;;;;;;;;5877725;28;20629;-82
2024/01/17 13:38:25;;;;;;;10.18;4.90;;;;;;;;;;5871202;28;20132;-82
2024/01/17 13:41:15;;;;;;;72.72;29.50;;;;;;;;;;5887298;28;20045;-82
2024/01/17 13:44:07;;;;;;;93.90;32.88;;;;;;;;;;5888554;28;20040;-82
2024/01/17 13:46:58;;;;;;;82.47;32.35;;;;;;;;;;5887511;28;20174;-82
2024/01/17 13:49:49;;;;;;;16.48;7.00;;;;;;;;;;5888324;28;20049;-82
2024/01/17 13:52:46;;;;;;;15.45;5.88;;;;;;;;;;5887125;28;20095;-81
2024/01/17 13:55:37;;;;;;;7.60;5.85;;;;;;;;;;5887250;28;20055;-81
2024/01/17 13:58:28;;;;;;;6.47;3.90;;;;;;;;;;5887951;28;20052;-82
2024/01/17 14:01:19;;;;;;;6.28;3.90;;;;;;;;;;5886170;28;20049;-82
2024/01/17 14:04:11;;;;;;;73.60;24.92;;;;;;;;;;5886617;28;20052;-81
2024/01/17 14:07:03;;;;;;;17.50;5.00;;;;;;;;;;5886334;28;20049;-82
2024/01/17 14:09:53;;;;;;;9.70;3.40;;;;;;;;;;5887695;28;20045;-81
2024/01/17 14:12:44;;;;;;;18.63;7.10;;;;;;;;;;5886530;28;20430;-82
2024/01/17 14:15:35;;;;;;;27.75;9.93;;;;;;;;;;5885803;28;20360;-81
2024/01/17 14:18:26;;;;;;;19.20;6.55;;;;;;;;;;5869666;28;20045;-81
2024/01/17 14:21:17;;;;;;;13.93;7.80;;;;;;;;;;5886530;28;20051;-82
2024/01/17 14:24:09;;;;;;;19.13;10.05;;;;;;;;;;5887198;28;20052;-82
2024/01/17 14:27:00;;;;;;;9.60;5.32;;;;;;;;;;5887932;28;20040;-82
2024/01/17 14:29:52;;;;;;;6.72;4.93;;;;;;;;;;5887897;28;20498;-82
2024/01/17 14:32:43;;;;;;;20.77;13.38;;;;;;;;;;5870264;28;20051;-82
2024/01/17 14:35:34;;;;;;;18.40;6.28;;;;;;;;;;5886001;28;20045;-81
2024/01/17 14:38:29;;;;;;;7.65;4.78;;;;;;;;;;5886055;28;20056;-81
2024/01/17 14:41:22;;;;;;;6.72;4.78;;;;;;;;;;5886105;28;20053;-81
2024/01/17 14:44:14;;;;;;;16.50;6.53;;;;;;;;;;5885579;28;20048;-81
2024/01/17 14:47:04;;;;;;;13.98;5.50;;;;;;;;;;5886222;28;20060;-81
2024/01/17 14:49:55;;;;;;;19.23;6.80;;;;;;;;;;5886473;28;20056;-81
2024/01/17 14:52:46;;;;;;;16.70;7.30;;;;;;;;;;5887459;28;20410;-81
2024/01/17 14:55:37;;;;;;;10.98;5.35;;;;;;;;;;5886380;28;20041;-81
2024/01/17 14:58:29;;;;;;;26.30;8.27;;;;;;;;;;5885826;28;20048;-81
2024/01/17 15:01:20;;;;;;;21.30;9.25;;;;;;;;;;5887288;28;20068;-81
2024/01/17 15:04:11;;;;;;;14.68;7.57;;;;;;;;;;5868761;28;20126;-81
2024/01/17 15:07:05;;;;;;;16.45;7.70;;;;;;;;;;5886092;28;20045;-81
2024/01/17 15:09:56;;;;;;;15.65;5.05;;;;;;;;;;5869915;28;20127;-81
2024/01/17 15:12:47;;;;;;;17.85;6.43;;;;;;;;;;5885581;28;20056;-81
2024/01/17 15:15:38;;;;;;;16.80;6.03;;;;;;;;;;5886363;28;20567;-81
2024/01/17 15:18:29;;;;;;;9.88;5.55;;;;;;;;;;5886884;28;20067;-81
2024/01/17 15:21:20;;;;;;;11.63;5.75;;;;;;;;;;5868701;28;20056;-81
2024/01/17 15:24:12;;;;;;;10.80;5.70;;;;;;;;;;5885168;28;20049;-81
2024/01/17 15:27:04;;;;;;;11.57;6.13;;;;;;;;;;5868435;28;20049;-81
2024/01/17 15:29:55;;;;;;;21.83;7.00;;;;;;;;;;5886357;28;20052;-81
2024/01/17 15:32:46;;;;;;;11.25;4.68;;;;;;;;;;5884918;28;20041;-81
2024/01/17 15:35:37;;;;;;;12.85;7.90;;;;;;;;;;5884878;28;20045;-81
2024/01/17 15:38:29;;;;;;;19.02;7.35;;;;;;;;;;5884733;28;20117;-81
2024/01/17 15:41:21;;;;;;;7.43;4.18;;;;;;;;;;5886429;28;20055;-81
2024/01/17 15:44:12;;;;;;;22.63;6.88;;;;;;;;;;5886925;28;20045;-80
2024/01/17 15:47:03;;;;;;;15.80;7.90;;;;;;;;;;5884587;28;20506;-81
2024/01/17 15:49:53;;;;;;;12.93;5.05;;;;;;;;;;5886540;28;20052;-81
2024/01/17 15:52:44;;;;;;;14.57;6.13;;;;;;;;;;5884856;28;20076;-81
2024/01/17 15:55:38;;;;;;;9.70;4.78;;;;;;;;;;5901597;28;20056;-81
2024/01/17 15:58:30;;;;;;;12.15;5.13;;;;;;;;;;5886260;28;20850;-81
2024/01/17 16:01:21;;;;;;;17.55;7.97;;;;;;;;;;5884611;28;20686;-81
2024/01/17 16:04:11;;;;;;;20.25;10.65;;;;;;;;;;5884679;28;20475;-81
2024/01/17 16:07:03;;;;;;;39.65;13.98;;;;;;;;;;5885457;28;20522;-81
2024/01/17 16:09:54;;;;;;;206.73;86.35;;;;;;;;;;5886257;28;20045;-81
2024/01/17 16:12:45;;;;;;;124.10;43.47;;;;;;;;;;5884396;28;20495;-81
2024/01/17 16:15:35;;;;;;;87.50;28.05;;;;;;;;;;5884412;28;20071;-81
2024/01/17 16:18:26;;;;;;;194.55;47.10;;;;;;;;;;5886935;28;20454;-81
2024/01/17 16:21:18;;;;;;;147.00;36.65;;;;;;;;;;5890506;28;20056;-81
2024/01/17 16:24:10;;;;;;;217.20;65.82;;;;;;;;;;5872591;28;20131;-81
2024/01/17 16:27:01;;;;;;;216.70;84.85;;;;;;;;;;5872821;28;20052;-81
2024/01/17 16:29:52;;;;;;;299.30;100.18;;;;;;;;;;5889469;28;20679;-81
2024/01/17 16:32:43;;;;;;;216.38;55.42;;;;;;;;;;5888966;28;20384;-81
2024/01/17 16:35:36;;;;;;;156.82;35.08;;;;;;;;;;5888640;28;20045;-81
2024/01/17 16:38:26;;;;;;;149.70;40.35;;;;;;;;;;5888980;28;20446;-81
2024/01/17 16:41:17;;;;;;;206.55;57.20;;;;;;;;;;5888590;28;20049;-81
2024/01/17 16:44:09;;;;;;;220.27;74.75;;;;;;;;;;5888483;28;20418;-81
2024/01/17 16:47:01;;;;;;;168.10;68.32;;;;;;;;;;5889003;28;20122;-81
2024/01/17 16:49:53;;;;;;;311.63;77.90;;;;;;;;;;5872092;28;20053;-81